sensor_id;sensor_type;location;lat;lon;timestamp;temperature;humidity
3466;DHT22;1747;48.884;9.160;2022-09-03T00:01:13;19.20;84.10
3466;DHT22;1747;48.884;9.160;2022-09-03T00:03:46;19.20;84.40
3466;DHT22;1747;48.884;9.160;2022-09-03T00:06:15;19.20;84.30
3466;DHT22;1747;48.884;9.160;2022-09-03T00:08:49;19.20;84.30
3466;DHT22;1747;48.884;9.160;2022-09-03T00:11:21;19.10;84.50
3466;DHT22;1747;48.884;9.160;2022-09-03T00:13:56;19.10;84.60
3466;DHT22;1747;48.884;9.160;2022-09-03T00:16:27;19.10;84.60
3466;DHT22;1747;48.884;9.160;2022-09-03T00:18:57;19.10;84.50
3466;DHT22;1747;48.884;9.160;2022-09-03T00:21:36;19.20;84.60
3466;DHT22;1747;48.884;9.160;2022-09-03T00:24:07;19.20;84.70
3466;DHT22;1747;48.884;9.160;2022-09-03T00:26:37;19.20;84.70
3466;DHT22;1747;48.884;9.160;2022-09-03T00:29:08;19.10;85.80
3466;DHT22;1747;48.884;9.160;2022-09-03T00:31:39;19.00;86.70
3466;DHT22;1747;48.884;9.160;2022-09-03T00:34:13;18.90;87.00
3466;DHT22;1747;48.884;9.160;2022-09-03T00:36:43;18.80;87.80
3466;DHT22;1747;48.884;9.160;2022-09-03T00:39:14;18.70;88.60
3466;DHT22;1747;48.884;9.160;2022-09-03T00:41:49;18.60;89.00
3466;DHT22;1747;48.884;9.160;2022-09-03T00:44:31;18.50;89.50
3466;DHT22;1747;48.884;9.160;2022-09-03T00:47:08;18.60;90.00
3466;DHT22;1747;48.884;9.160;2022-09-03T00:49:45;18.60;90.00
3466;DHT22;1747;48.884;9.160;2022-09-03T00:52:24;18.70;89.90
3466;DHT22;1747;48.884;9.160;2022-09-03T00:55:07;18.70;90.00
3466;DHT22;1747;48.884;9.160;2022-09-03T00:57:47;18.80;89.70
3466;DHT22;1747;48.884;9.160;2022-09-03T01:00:19;18.90;89.80
3466;DHT22;1747;48.884;9.160;2022-09-03T01:03:00;18.90;90.00
3466;DHT22;1747;48.884;9.160;2022-09-03T01:05:40;18.90;90.20
3466;DHT22;1747;48.884;9.160;2022-09-03T01:08:19;18.90;90.50
3466;DHT22;1747;48.884;9.160;2022-09-03T01:10:56;18.90;90.40
3466;DHT22;1747;48.884;9.160;2022-09-03T01:13:30;19.00;90.60
3466;DHT22;1747;48.884;9.160;2022-09-03T01:16:08;19.00;90.80
3466;DHT22;1747;48.884;9.160;2022-09-03T01:18:43;18.90;90.90
3466;DHT22;1747;48.884;9.160;2022-09-03T01:21:39;18.80;91.00
3466;DHT22;1747;48.884;9.160;2022-09-03T01:24:32;18.80;91.20
3466;DHT22;1747;48.884;9.160;2022-09-03T01:27:18;18.70;91.00
3466;DHT22;1747;48.884;9.160;2022-09-03T01:29:57;18.70;91.30
3466;DHT22;1747;48.884;9.160;2022-09-03T01:32:32;18.70;91.40
3466;DHT22;1747;48.884;9.160;2022-09-03T01:35:05;18.70;91.60
3466;DHT22;1747;48.884;9.160;2022-09-03T01:37:42;18.70;91.70
3466;DHT22;1747;48.884;9.160;2022-09-03T01:40:19;18.60;91.70
3466;DHT22;1747;48.884;9.160;2022-09-03T01:43:06;18.60;91.70
3466;DHT22;1747;48.884;9.160;2022-09-03T01:45:43;18.60;92.20
3466;DHT22;1747;48.884;9.160;2022-09-03T01:48:24;18.50;92.30
3466;DHT22;1747;48.884;9.160;2022-09-03T01:51:01;18.50;91.90
3466;DHT22;1747;48.884;9.160;2022-09-03T01:53:45;18.50;92.10
3466;DHT22;1747;48.884;9.160;2022-09-03T01:56:27;18.50;92.50
3466;DHT22;1747;48.884;9.160;2022-09-03T01:59:03;18.50;93.00
3466;DHT22;1747;48.884;9.160;2022-09-03T02:01:38;18.60;92.50
3466;DHT22;1747;48.884;9.160;2022-09-03T02:04:14;18.70;92.30
3466;DHT22;1747;48.884;9.160;2022-09-03T02:06:42;18.70;92.50
3466;DHT22;1747;48.884;9.160;2022-09-03T02:09:13;18.70;92.60
3466;DHT22;1747;48.884;9.160;2022-09-03T02:11:42;18.70;92.50
3466;DHT22;1747;48.884;9.160;2022-09-03T02:14:09;18.80;92.20
3466;DHT22;1747;48.884;9.160;2022-09-03T02:16:37;18.80;92.00
3466;DHT22;1747;48.884;9.160;2022-09-03T02:19:06;18.80;92.10
3466;DHT22;1747;48.884;9.160;2022-09-03T02:21:38;18.80;92.30
3466;DHT22;1747;48.884;9.160;2022-09-03T02:24:07;18.80;92.30
3466;DHT22;1747;48.884;9.160;2022-09-03T02:26:34;18.80;92.50
3466;DHT22;1747;48.884;9.160;2022-09-03T02:29:02;18.80;92.80
3466;DHT22;1747;48.884;9.160;2022-09-03T02:31:30;18.80;92.90
3466;DHT22;1747;48.884;9.160;2022-09-03T02:33:58;18.80;93.50
3466;DHT22;1747;48.884;9.160;2022-09-03T02:36:28;18.80;93.60
3466;DHT22;1747;48.884;9.160;2022-09-03T02:38:56;18.80;93.50
3466;DHT22;1747;48.884;9.160;2022-09-03T02:41:23;18.80;93.20
3466;DHT22;1747;48.884;9.160;2022-09-03T02:43:55;18.80;93.10
3466;DHT22;1747;48.884;9.160;2022-09-03T02:46:28;18.80;93.30
3466;DHT22;1747;48.884;9.160;2022-09-03T02:48:59;18.80;93.60
3466;DHT22;1747;48.884;9.160;2022-09-03T02:51:26;18.80;93.60
3466;DHT22;1747;48.884;9.160;2022-09-03T02:53:57;18.70;93.90
3466;DHT22;1747;48.884;9.160;2022-09-03T02:56:23;18.70;94.20
3466;DHT22;1747;48.884;9.160;2022-09-03T02:58:52;18.70;94.00
3466;DHT22;1747;48.884;9.160;2022-09-03T03:01:19;18.70;94.10
3466;DHT22;1747;48.884;9.160;2022-09-03T03:03:46;18.70;94.00
3466;DHT22;1747;48.884;9.160;2022-09-03T03:06:14;18.60;94.40
3466;DHT22;1747;48.884;9.160;2022-09-03T03:08:41;18.60;94.60
3466;DHT22;1747;48.884;9.160;2022-09-03T03:11:08;18.60;95.20
3466;DHT22;1747;48.884;9.160;2022-09-03T03:13:35;18.50;95.20
3466;DHT22;1747;48.884;9.160;2022-09-03T03:16:04;18.50;95.40
3466;DHT22;1747;48.884;9.160;2022-09-03T03:18:31;18.50;95.60
3466;DHT22;1747;48.884;9.160;2022-09-03T03:21:04;18.50;95.40
3466;DHT22;1747;48.884;9.160;2022-09-03T03:23:33;18.50;95.50
3466;DHT22;1747;48.884;9.160;2022-09-03T03:26:00;18.50;95.50
3466;DHT22;1747;48.884;9.160;2022-09-03T03:28:27;18.50;95.80
3466;DHT22;1747;48.884;9.160;2022-09-03T03:30:58;18.50;96.20
3466;DHT22;1747;48.884;9.160;2022-09-03T03:33:25;18.40;96.50
3466;DHT22;1747;48.884;9.160;2022-09-03T03:35:52;18.30;96.70
3466;DHT22;1747;48.884;9.160;2022-09-03T03:38:19;18.20;96.60
3466;DHT22;1747;48.884;9.160;2022-09-03T03:40:47;18.10;96.60
3466;DHT22;1747;48.884;9.160;2022-09-03T03:43:14;18.00;96.70
3466;DHT22;1747;48.884;9.160;2022-09-03T03:45:40;18.00;96.90
3466;DHT22;1747;48.884;9.160;2022-09-03T03:48:07;18.10;97.20
3466;DHT22;1747;48.884;9.160;2022-09-03T03:50:34;18.10;97.20
3466;DHT22;1747;48.884;9.160;2022-09-03T03:53:02;18.20;97.70
3466;DHT22;1747;48.884;9.160;2022-09-03T03:55:29;18.20;97.90
3466;DHT22;1747;48.884;9.160;2022-09-03T03:57:59;18.30;97.90
3466;DHT22;1747;48.884;9.160;2022-09-03T04:00:25;18.30;98.20
3466;DHT22;1747;48.884;9.160;2022-09-03T04:02:52;18.10;98.40
3466;DHT22;1747;48.884;9.160;2022-09-03T04:05:19;18.00;98.50
3466;DHT22;1747;48.884;9.160;2022-09-03T04:07:46;18.00;98.70
3466;DHT22;1747;48.884;9.160;2022-09-03T04:10:13;17.90;98.90
3466;DHT22;1747;48.884;9.160;2022-09-03T04:12:40;17.90;98.90
3466;DHT22;1747;48.884;9.160;2022-09-03T04:15:09;18.00;99.00
3466;DHT22;1747;48.884;9.160;2022-09-03T04:17:36;18.00;98.90
3466;DHT22;1747;48.884;9.160;2022-09-03T04:20:04;18.10;98.80
3466;DHT22;1747;48.884;9.160;2022-09-03T04:22:31;18.10;98.80
3466;DHT22;1747;48.884;9.160;2022-09-03T04:24:58;18.20;98.70
3466;DHT22;1747;48.884;9.160;2022-09-03T04:27:25;18.20;98.80
3466;DHT22;1747;48.884;9.160;2022-09-03T04:29:51;18.20;98.90
3466;DHT22;1747;48.884;9.160;2022-09-03T04:32:20;18.30;99.00
3466;DHT22;1747;48.884;9.160;2022-09-03T04:35:04;18.30;98.80
3466;DHT22;1747;48.884;9.160;2022-09-03T04:37:31;18.30;99.00
3466;DHT22;1747;48.884;9.160;2022-09-03T04:39:58;18.40;98.70
3466;DHT22;1747;48.884;9.160;2022-09-03T04:42:26;18.40;98.60
3466;DHT22;1747;48.884;9.160;2022-09-03T04:44:53;18.40;98.40
3466;DHT22;1747;48.884;9.160;2022-09-03T04:47:21;18.40;98.70
3466;DHT22;1747;48.884;9.160;2022-09-03T04:49:48;18.40;98.90
3466;DHT22;1747;48.884;9.160;2022-09-03T04:52:14;18.40;98.70
3466;DHT22;1747;48.884;9.160;2022-09-03T04:54:41;18.40;98.80
3466;DHT22;1747;48.884;9.160;2022-09-03T04:57:08;18.40;98.80
3466;DHT22;1747;48.884;9.160;2022-09-03T04:59:35;18.40;99.30
3466;DHT22;1747;48.884;9.160;2022-09-03T05:02:02;18.30;99.50
3466;DHT22;1747;48.884;9.160;2022-09-03T05:04:30;18.30;99.70
3466;DHT22;1747;48.884;9.160;2022-09-03T05:06:57;18.20;99.80
3466;DHT22;1747;48.884;9.160;2022-09-03T05:09:24;18.20;99.90
3466;DHT22;1747;48.884;9.160;2022-09-03T05:11:51;18.20;99.90
3466;DHT22;1747;48.884;9.160;2022-09-03T05:14:18;18.20;99.90
3466;DHT22;1747;48.884;9.160;2022-09-03T05:16:44;18.20;99.90
3466;DHT22;1747;48.884;9.160;2022-09-03T05:19:11;18.30;99.90
3466;DHT22;1747;48.884;9.160;2022-09-03T05:21:39;18.20;99.90
3466;DHT22;1747;48.884;9.160;2022-09-03T05:24:07;18.30;99.90
3466;DHT22;1747;48.884;9.160;2022-09-03T05:26:37;18.40;99.90
3466;DHT22;1747;48.884;9.160;2022-09-03T05:29:05;18.40;99.90
3466;DHT22;1747;48.884;9.160;2022-09-03T05:31:34;18.50;99.90
3466;DHT22;1747;48.884;9.160;2022-09-03T05:34:03;18.50;99.90
3466;DHT22;1747;48.884;9.160;2022-09-03T05:36:32;18.40;99.90
3466;DHT22;1747;48.884;9.160;2022-09-03T05:39:01;18.40;99.90
3466;DHT22;1747;48.884;9.160;2022-09-03T05:41:28;18.50;99.90
3466;DHT22;1747;48.884;9.160;2022-09-03T05:43:57;18.50;99.90
3466;DHT22;1747;48.884;9.160;2022-09-03T05:46:25;18.60;99.90
3466;DHT22;1747;48.884;9.160;2022-09-03T05:48:56;18.50;99.90
3466;DHT22;1747;48.884;9.160;2022-09-03T05:51:24;18.50;99.90
3466;DHT22;1747;48.884;9.160;2022-09-03T05:53:50;18.60;99.90
3466;DHT22;1747;48.884;9.160;2022-09-03T05:56:22;18.60;99.90
3466;DHT22;1747;48.884;9.160;2022-09-03T05:58:51;18.60;99.90
3466;DHT22;1747;48.884;9.160;2022-09-03T06:01:19;18.50;99.90
3466;DHT22;1747;48.884;9.160;2022-09-03T06:03:52;18.60;99.90
3466;DHT22;1747;48.884;9.160;2022-09-03T06:06:20;18.60;99.90
3466;DHT22;1747;48.884;9.160;2022-09-03T06:08:50;18.60;99.90
3466;DHT22;1747;48.884;9.160;2022-09-03T06:11:17;18.70;99.90
3466;DHT22;1747;48.884;9.160;2022-09-03T06:13:45;18.70;99.90
3466;DHT22;1747;48.884;9.160;2022-09-03T06:16:13;18.70;99.90
3466;DHT22;1747;48.884;9.160;2022-09-03T06:18:40;18.80;99.90
3466;DHT22;1747;48.884;9.160;2022-09-03T06:21:07;18.80;99.90
3466;DHT22;1747;48.884;9.160;2022-09-03T06:23:34;18.90;99.90
3466;DHT22;1747;48.884;9.160;2022-09-03T06:26:03;19.00;99.90
3466;DHT22;1747;48.884;9.160;2022-09-03T06:28:30;19.00;99.90
3466;DHT22;1747;48.884;9.160;2022-09-03T06:31:00;19.10;99.90
3466;DHT22;1747;48.884;9.160;2022-09-03T06:33:27;19.10;99.90
3466;DHT22;1747;48.884;9.160;2022-09-03T06:35:56;19.10;99.90
3466;DHT22;1747;48.884;9.160;2022-09-03T06:38:24;19.20;99.90
3466;DHT22;1747;48.884;9.160;2022-09-03T06:40:52;19.20;99.90
3466;DHT22;1747;48.884;9.160;2022-09-03T06:43:20;19.10;99.90
3466;DHT22;1747;48.884;9.160;2022-09-03T06:45:58;19.10;99.90
3466;DHT22;1747;48.884;9.160;2022-09-03T06:48:27;19.10;99.90
3466;DHT22;1747;48.884;9.160;2022-09-03T06:50:56;19.20;99.90
3466;DHT22;1747;48.884;9.160;2022-09-03T06:53:24;19.30;99.90
3466;DHT22;1747;48.884;9.160;2022-09-03T06:55:53;19.40;99.90
3466;DHT22;1747;48.884;9.160;2022-09-03T06:58:19;19.50;99.90
3466;DHT22;1747;48.884;9.160;2022-09-03T07:00:47;19.60;99.90
3466;DHT22;1747;48.884;9.160;2022-09-03T07:03:15;19.60;99.90
3466;DHT22;1747;48.884;9.160;2022-09-03T07:05:44;19.70;99.90
3466;DHT22;1747;48.884;9.160;2022-09-03T07:08:11;19.80;99.90
3466;DHT22;1747;48.884;9.160;2022-09-03T07:10:38;19.90;99.90
3466;DHT22;1747;48.884;9.160;2022-09-03T07:13:05;19.90;99.90
3466;DHT22;1747;48.884;9.160;2022-09-03T07:15:32;19.90;99.90
3466;DHT22;1747;48.884;9.160;2022-09-03T07:17:59;20.00;99.90
3466;DHT22;1747;48.884;9.160;2022-09-03T07:20:26;20.00;99.90
3466;DHT22;1747;48.884;9.160;2022-09-03T07:22:55;20.20;99.90
3466;DHT22;1747;48.884;9.160;2022-09-03T07:25:22;20.20;99.90
3466;DHT22;1747;48.884;9.160;2022-09-03T07:27:50;20.40;99.90
3466;DHT22;1747;48.884;9.160;2022-09-03T07:30:17;20.40;99.90
3466;DHT22;1747;48.884;9.160;2022-09-03T07:32:45;20.30;99.90
3466;DHT22;1747;48.884;9.160;2022-09-03T07:35:12;20.30;99.90
3466;DHT22;1747;48.884;9.160;2022-09-03T07:37:40;20.30;99.90
3466;DHT22;1747;48.884;9.160;2022-09-03T07:40:10;20.30;99.90
3466;DHT22;1747;48.884;9.160;2022-09-03T07:42:37;20.30;99.90
3466;DHT22;1747;48.884;9.160;2022-09-03T07:45:06;20.20;99.90
3466;DHT22;1747;48.884;9.160;2022-09-03T07:47:35;20.20;99.90
3466;DHT22;1747;48.884;9.160;2022-09-03T07:50:02;20.30;99.90
3466;DHT22;1747;48.884;9.160;2022-09-03T07:52:29;20.40;99.90
3466;DHT22;1747;48.884;9.160;2022-09-03T07:54:56;20.50;99.90
3466;DHT22;1747;48.884;9.160;2022-09-03T07:57:25;20.70;99.90
3466;DHT22;1747;48.884;9.160;2022-09-03T07:59:52;20.80;99.90
3466;DHT22;1747;48.884;9.160;2022-09-03T08:02:18;20.80;99.90
3466;DHT22;1747;48.884;9.160;2022-09-03T08:04:46;20.80;99.90
3466;DHT22;1747;48.884;9.160;2022-09-03T08:07:12;20.90;99.70
3466;DHT22;1747;48.884;9.160;2022-09-03T08:09:39;21.10;99.70
3466;DHT22;1747;48.884;9.160;2022-09-03T08:12:06;21.30;99.90
3466;DHT22;1747;48.884;9.160;2022-09-03T08:14:35;21.10;99.90
3466;DHT22;1747;48.884;9.160;2022-09-03T08:17:01;21.40;99.70
3466;DHT22;1747;48.884;9.160;2022-09-03T08:19:29;21.60;99.50
3466;DHT22;1747;48.884;9.160;2022-09-03T08:21:55;21.60;99.70
3466;DHT22;1747;48.884;9.160;2022-09-03T08:24:22;21.70;99.50
3466;DHT22;1747;48.884;9.160;2022-09-03T08:26:50;21.80;99.80
3466;DHT22;1747;48.884;9.160;2022-09-03T08:29:18;22.00;98.40
3466;DHT22;1747;48.884;9.160;2022-09-03T08:31:46;22.10;99.30
3466;DHT22;1747;48.884;9.160;2022-09-03T08:34:13;22.30;98.30
3466;DHT22;1747;48.884;9.160;2022-09-03T08:36:42;22.50;97.60
3466;DHT22;1747;48.884;9.160;2022-09-03T08:39:11;22.50;98.40
3466;DHT22;1747;48.884;9.160;2022-09-03T08:44:46;22.50;97.70
3466;DHT22;1747;48.884;9.160;2022-09-03T08:47:20;22.40;98.50
3466;DHT22;1747;48.884;9.160;2022-09-03T08:49:52;22.40;98.10
3466;DHT22;1747;48.884;9.160;2022-09-03T08:52:24;22.50;97.40
3466;DHT22;1747;48.884;9.160;2022-09-03T08:54:57;22.60;97.60
3466;DHT22;1747;48.884;9.160;2022-09-03T08:57:25;22.80;97.30
3466;DHT22;1747;48.884;9.160;2022-09-03T08:59:54;22.80;97.20
3466;DHT22;1747;48.884;9.160;2022-09-03T09:02:28;22.80;97.30
3466;DHT22;1747;48.884;9.160;2022-09-03T09:05:02;22.80;97.90
3466;DHT22;1747;48.884;9.160;2022-09-03T09:07:36;22.70;98.10
3466;DHT22;1747;48.884;9.160;2022-09-03T09:10:11;22.70;98.20
3466;DHT22;1747;48.884;9.160;2022-09-03T09:12:45;22.90;98.10
3466;DHT22;1747;48.884;9.160;2022-09-03T09:15:26;23.00;97.70
3466;DHT22;1747;48.884;9.160;2022-09-03T09:18:02;23.20;98.30
3466;DHT22;1747;48.884;9.160;2022-09-03T09:20:36;23.40;97.10
3466;DHT22;1747;48.884;9.160;2022-09-03T09:23:07;23.40;97.20
3466;DHT22;1747;48.884;9.160;2022-09-03T09:25:43;23.50;96.90
3466;DHT22;1747;48.884;9.160;2022-09-03T09:28:17;23.50;97.00
3466;DHT22;1747;48.884;9.160;2022-09-03T09:30:45;23.50;97.10
3466;DHT22;1747;48.884;9.160;2022-09-03T09:33:14;23.60;96.80
3466;DHT22;1747;48.884;9.160;2022-09-03T09:35:41;23.70;97.10
3466;DHT22;1747;48.884;9.160;2022-09-03T09:38:09;23.80;96.80
3466;DHT22;1747;48.884;9.160;2022-09-03T09:40:37;24.00;96.10
3466;DHT22;1747;48.884;9.160;2022-09-03T09:43:11;24.10;95.80
3466;DHT22;1747;48.884;9.160;2022-09-03T09:45:42;24.20;95.50
3466;DHT22;1747;48.884;9.160;2022-09-03T09:48:18;24.20;95.80
3466;DHT22;1747;48.884;9.160;2022-09-03T09:50:46;24.20;95.60
3466;DHT22;1747;48.884;9.160;2022-09-03T09:53:17;24.30;96.10
3466;DHT22;1747;48.884;9.160;2022-09-03T09:55:50;24.40;95.70
3466;DHT22;1747;48.884;9.160;2022-09-03T09:58:19;24.80;95.70
3466;DHT22;1747;48.884;9.160;2022-09-03T10:00:56;25.10;95.10
3466;DHT22;1747;48.884;9.160;2022-09-03T10:03:25;25.20;94.00
3466;DHT22;1747;48.884;9.160;2022-09-03T10:06:01;25.10;94.40
3466;DHT22;1747;48.884;9.160;2022-09-03T10:08:50;25.10;94.10
3466;DHT22;1747;48.884;9.160;2022-09-03T10:11:19;25.00;94.10
3466;DHT22;1747;48.884;9.160;2022-09-03T10:13:48;25.00;94.40
3466;DHT22;1747;48.884;9.160;2022-09-03T10:16:21;25.00;94.10
3466;DHT22;1747;48.884;9.160;2022-09-03T10:18:57;25.00;93.90
3466;DHT22;1747;48.884;9.160;2022-09-03T10:21:39;25.00;93.90
3466;DHT22;1747;48.884;9.160;2022-09-03T10:26:58;25.20;93.50
3466;DHT22;1747;48.884;9.160;2022-09-03T10:29:26;25.20;93.50
3466;DHT22;1747;48.884;9.160;2022-09-03T10:32:02;25.40;93.10
3466;DHT22;1747;48.884;9.160;2022-09-03T10:34:39;25.50;93.00
3466;DHT22;1747;48.884;9.160;2022-09-03T10:37:17;25.50;93.30
3466;DHT22;1747;48.884;9.160;2022-09-03T10:43:03;25.40;93.80
3466;DHT22;1747;48.884;9.160;2022-09-03T10:45:38;25.40;94.00
3466;DHT22;1747;48.884;9.160;2022-09-03T10:51:17;25.70;93.10
3466;DHT22;1747;48.884;9.160;2022-09-03T10:53:59;25.80;92.20
3466;DHT22;1747;48.884;9.160;2022-09-03T10:56:31;25.70;93.20
3466;DHT22;1747;48.884;9.160;2022-09-03T10:59:09;25.40;93.40
3466;DHT22;1747;48.884;9.160;2022-09-03T11:01:51;25.50;93.10
3466;DHT22;1747;48.884;9.160;2022-09-03T11:04:27;25.40;93.40
3466;DHT22;1747;48.884;9.160;2022-09-03T11:07:02;25.40;93.20
3466;DHT22;1747;48.884;9.160;2022-09-03T11:09:35;25.60;92.40
3466;DHT22;1747;48.884;9.160;2022-09-03T11:12:05;25.70;92.50
3466;DHT22;1747;48.884;9.160;2022-09-03T11:14:37;25.70;92.70
3466;DHT22;1747;48.884;9.160;2022-09-03T11:17:09;25.60;93.90
3466;DHT22;1747;48.884;9.160;2022-09-03T11:19:43;25.50;93.50
3466;DHT22;1747;48.884;9.160;2022-09-03T11:22:14;25.70;93.40
3466;DHT22;1747;48.884;9.160;2022-09-03T11:24:48;25.80;93.70
3466;DHT22;1747;48.884;9.160;2022-09-03T11:27:25;25.80;93.20
3466;DHT22;1747;48.884;9.160;2022-09-03T11:29:59;26.10;92.40
3466;DHT22;1747;48.884;9.160;2022-09-03T11:32:38;26.00;92.80
3466;DHT22;1747;48.884;9.160;2022-09-03T11:35:13;26.10;92.60
3466;DHT22;1747;48.884;9.160;2022-09-03T11:37:52;26.20;92.40
3466;DHT22;1747;48.884;9.160;2022-09-03T11:40:19;26.20;92.50
3466;DHT22;1747;48.884;9.160;2022-09-03T11:43:05;26.20;92.60
3466;DHT22;1747;48.884;9.160;2022-09-03T11:45:36;26.20;92.90
3466;DHT22;1747;48.884;9.160;2022-09-03T11:48:29;26.10;92.20
3466;DHT22;1747;48.884;9.160;2022-09-03T11:50:58;26.10;92.60
3466;DHT22;1747;48.884;9.160;2022-09-03T11:53:32;26.10;92.70
3466;DHT22;1747;48.884;9.160;2022-09-03T11:56:11;26.00;92.80
3466;DHT22;1747;48.884;9.160;2022-09-03T11:58:42;26.20;91.90
3466;DHT22;1747;48.884;9.160;2022-09-03T12:01:11;26.30;91.50
3466;DHT22;1747;48.884;9.160;2022-09-03T12:03:42;26.30;91.40
3466;DHT22;1747;48.884;9.160;2022-09-03T12:06:32;26.10;91.60
3466;DHT22;1747;48.884;9.160;2022-09-03T12:09:22;25.80;92.30
3466;DHT22;1747;48.884;9.160;2022-09-03T12:11:57;25.70;92.20
3466;DHT22;1747;48.884;9.160;2022-09-03T12:14:34;25.40;92.80
3466;DHT22;1747;48.884;9.160;2022-09-03T12:17:09;25.20;93.10
3466;DHT22;1747;48.884;9.160;2022-09-03T12:19:41;25.00;94.00
3466;DHT22;1747;48.884;9.160;2022-09-03T12:22:15;24.80;94.20
3466;DHT22;1747;48.884;9.160;2022-09-03T12:24:43;24.50;94.50
3466;DHT22;1747;48.884;9.160;2022-09-03T12:27:14;24.30;95.50
3466;DHT22;1747;48.884;9.160;2022-09-03T12:29:51;23.90;95.50
3466;DHT22;1747;48.884;9.160;2022-09-03T12:32:25;23.90;96.00
3466;DHT22;1747;48.884;9.160;2022-09-03T12:34:52;24.00;96.30
3466;DHT22;1747;48.884;9.160;2022-09-03T12:37:20;24.00;96.00
3466;DHT22;1747;48.884;9.160;2022-09-03T12:39:54;23.90;95.80
3466;DHT22;1747;48.884;9.160;2022-09-03T12:42:26;23.90;95.80
3466;DHT22;1747;48.884;9.160;2022-09-03T12:44:53;23.90;95.80
3466;DHT22;1747;48.884;9.160;2022-09-03T12:47:22;23.80;96.20
3466;DHT22;1747;48.884;9.160;2022-09-03T12:49:51;23.70;96.30
3466;DHT22;1747;48.884;9.160;2022-09-03T12:52:20;23.70;96.50
3466;DHT22;1747;48.884;9.160;2022-09-03T12:54:54;23.60;96.80
3466;DHT22;1747;48.884;9.160;2022-09-03T12:57:26;23.90;97.60
3466;DHT22;1747;48.884;9.160;2022-09-03T12:59:58;24.00;98.20
3466;DHT22;1747;48.884;9.160;2022-09-03T13:02:29;23.80;98.50
3466;DHT22;1747;48.884;9.160;2022-09-03T13:05:01;23.40;99.90
3466;DHT22;1747;48.884;9.160;2022-09-03T13:07:31;23.20;99.90
3466;DHT22;1747;48.884;9.160;2022-09-03T13:10:04;22.90;99.90
3466;DHT22;1747;48.884;9.160;2022-09-03T13:12:40;22.60;99.90
3466;DHT22;1747;48.884;9.160;2022-09-03T13:15:11;22.30;99.90
3466;DHT22;1747;48.884;9.160;2022-09-03T13:18:14;22.20;99.90
3466;DHT22;1747;48.884;9.160;2022-09-03T13:21:09;22.10;99.90
3466;DHT22;1747;48.884;9.160;2022-09-03T13:23:57;22.20;99.90
3466;DHT22;1747;48.884;9.160;2022-09-03T13:26:38;22.40;99.90
3466;DHT22;1747;48.884;9.160;2022-09-03T13:29:23;22.50;99.90
3466;DHT22;1747;48.884;9.160;2022-09-03T13:31:55;22.60;99.90
3466;DHT22;1747;48.884;9.160;2022-09-03T13:34:30;22.90;99.90
3466;DHT22;1747;48.884;9.160;2022-09-03T13:37:03;23.10;99.90
3466;DHT22;1747;48.884;9.160;2022-09-03T13:39:40;23.30;99.90
3466;DHT22;1747;48.884;9.160;2022-09-03T13:42:15;23.60;99.90
3466;DHT22;1747;48.884;9.160;2022-09-03T13:44:47;23.80;99.90
3466;DHT22;1747;48.884;9.160;2022-09-03T13:47:25;23.80;99.90
3466;DHT22;1747;48.884;9.160;2022-09-03T13:49:57;23.90;99.90
3466;DHT22;1747;48.884;9.160;2022-09-03T13:52:48;23.40;99.90
3466;DHT22;1747;48.884;9.160;2022-09-03T13:55:21;23.40;99.90
3466;DHT22;1747;48.884;9.160;2022-09-03T13:57:53;23.30;99.90
3466;DHT22;1747;48.884;9.160;2022-09-03T14:00:26;22.90;99.90
3466;DHT22;1747;48.884;9.160;2022-09-03T14:02:57;22.50;99.90
3466;DHT22;1747;48.884;9.160;2022-09-03T14:05:44;22.50;99.90
3466;DHT22;1747;48.884;9.160;2022-09-03T14:08:21;22.80;99.90
3466;DHT22;1747;48.884;9.160;2022-09-03T14:10:59;23.00;99.90
3466;DHT22;1747;48.884;9.160;2022-09-03T14:13:49;23.50;99.90
3466;DHT22;1747;48.884;9.160;2022-09-03T14:16:27;23.60;99.90
3466;DHT22;1747;48.884;9.160;2022-09-03T14:18:58;23.80;99.90
3466;DHT22;1747;48.884;9.160;2022-09-03T14:21:29;23.50;99.90
3466;DHT22;1747;48.884;9.160;2022-09-03T14:24:04;23.50;99.90
3466;DHT22;1747;48.884;9.160;2022-09-03T14:26:34;23.30;99.90
3466;DHT22;1747;48.884;9.160;2022-09-03T14:29:07;23.00;99.90
3466;DHT22;1747;48.884;9.160;2022-09-03T14:32:03;22.90;99.90
3466;DHT22;1747;48.884;9.160;2022-09-03T14:34:40;22.80;99.90
3466;DHT22;1747;48.884;9.160;2022-09-03T14:37:23;22.60;99.90
3466;DHT22;1747;48.884;9.160;2022-09-03T14:39:55;22.50;99.90
3466;DHT22;1747;48.884;9.160;2022-09-03T14:42:41;22.50;99.90
3466;DHT22;1747;48.884;9.160;2022-09-03T14:45:48;22.40;99.90
3466;DHT22;1747;48.884;9.160;2022-09-03T14:48:34;22.30;99.90
3466;DHT22;1747;48.884;9.160;2022-09-03T14:51:17;22.30;99.90
3466;DHT22;1747;48.884;9.160;2022-09-03T14:57:01;22.30;99.90
3466;DHT22;1747;48.884;9.160;2022-09-03T14:59:42;22.30;99.90
3466;DHT22;1747;48.884;9.160;2022-09-03T15:02:45;22.20;99.90
3466;DHT22;1747;48.884;9.160;2022-09-03T15:05:17;22.20;99.90
3466;DHT22;1747;48.884;9.160;2022-09-03T15:07:50;22.20;99.90
3466;DHT22;1747;48.884;9.160;2022-09-03T15:10:26;22.10;99.90
3466;DHT22;1747;48.884;9.160;2022-09-03T15:13:08;22.10;99.90
3466;DHT22;1747;48.884;9.160;2022-09-03T15:15:51;22.10;99.90
3466;DHT22;1747;48.884;9.160;2022-09-03T15:18:25;22.10;99.90
3466;DHT22;1747;48.884;9.160;2022-09-03T15:21:02;22.20;99.90
3466;DHT22;1747;48.884;9.160;2022-09-03T15:23:44;22.90;99.90
3466;DHT22;1747;48.884;9.160;2022-09-03T15:26:44;24.00;99.90
3466;DHT22;1747;48.884;9.160;2022-09-03T15:29:35;25.20;99.90
3466;DHT22;1747;48.884;9.160;2022-09-03T15:32:11;27.00;99.90
3466;DHT22;1747;48.884;9.160;2022-09-03T15:34:57;27.80;99.90
3466;DHT22;1747;48.884;9.160;2022-09-03T15:37:27;28.20;99.10
3466;DHT22;1747;48.884;9.160;2022-09-03T15:40:02;28.90;98.70
3466;DHT22;1747;48.884;9.160;2022-09-03T15:42:30;29.00;97.90
3466;DHT22;1747;48.884;9.160;2022-09-03T15:45:04;29.30;97.70
3466;DHT22;1747;48.884;9.160;2022-09-03T15:47:49;29.50;96.90
3466;DHT22;1747;48.884;9.160;2022-09-03T15:50:28;29.30;96.10
3466;DHT22;1747;48.884;9.160;2022-09-03T15:53:02;28.90;96.10
3466;DHT22;1747;48.884;9.160;2022-09-03T15:55:33;28.60;95.60
3466;DHT22;1747;48.884;9.160;2022-09-03T15:58:08;28.30;96.40
3466;DHT22;1747;48.884;9.160;2022-09-03T16:00:52;28.20;96.40
3466;DHT22;1747;48.884;9.160;2022-09-03T16:03:32;27.80;97.70
3466;DHT22;1747;48.884;9.160;2022-09-03T16:06:05;27.40;98.10
3466;DHT22;1747;48.884;9.160;2022-09-03T16:08:39;27.10;98.60
3466;DHT22;1747;48.884;9.160;2022-09-03T16:11:12;26.70;99.00
3466;DHT22;1747;48.884;9.160;2022-09-03T16:13:55;26.40;99.30
3466;DHT22;1747;48.884;9.160;2022-09-03T16:16:27;26.20;99.60
3466;DHT22;1747;48.884;9.160;2022-09-03T16:19:02;26.00;99.60
3466;DHT22;1747;48.884;9.160;2022-09-03T16:21:38;25.90;99.90
3466;DHT22;1747;48.884;9.160;2022-09-03T16:24:14;25.80;99.90
3466;DHT22;1747;48.884;9.160;2022-09-03T16:26:50;25.60;99.90
3466;DHT22;1747;48.884;9.160;2022-09-03T16:29:25;25.30;99.90
3466;DHT22;1747;48.884;9.160;2022-09-03T16:32:11;25.00;99.90
3466;DHT22;1747;48.884;9.160;2022-09-03T16:34:49;24.80;99.90
3466;DHT22;1747;48.884;9.160;2022-09-03T16:37:26;24.50;99.90
3466;DHT22;1747;48.884;9.160;2022-09-03T16:40:00;24.40;99.90
3466;DHT22;1747;48.884;9.160;2022-09-03T16:42:32;24.40;99.90
3466;DHT22;1747;48.884;9.160;2022-09-03T16:45:08;24.40;99.90
3466;DHT22;1747;48.884;9.160;2022-09-03T16:47:53;24.40;99.90
3466;DHT22;1747;48.884;9.160;2022-09-03T16:50:31;24.50;99.90
3466;DHT22;1747;48.884;9.160;2022-09-03T16:53:06;24.50;99.90